Time;durP1;ratioP1;P1;durP2;ratioP2;P2;SDS_P1;SDS_P2;PMS_P1;PMS_P2;Temp;Humidity;BMP_temperature;BMP_pressure;BME280_temperature;BME280_humidity;BME280_pressure;Samples;Min_cycle;Max_cycle;Signal;HPM_P1;HPM_P2
2023/10/04 03:59:40;;;;;;;5.93;2.58;;;;;;;18.97;74.63;101119.53;5568097;32;84884;-57
2023/10/04 04:02:44;;;;;;;5.82;2.35;;;;;;;18.97;74.63;101119.53;5564408;32;33358;-58
2023/10/04 04:05:48;;;;;;;15.73;2.78;;;;;;;18.48;80.22;101114.16;5564152;32;33499;-59
2023/10/04 04:08:52;;;;;;;4.68;2.20;;;;;;;18.51;74.90;101135.25;5564251;32;34267;-58
2023/10/04 04:11:55;;;;;;;6.22;2.22;;;;;;;18.60;79.65;101120.91;5563578;32;33567;-58
2023/10/04 04:14:58;;;;;;;5.80;2.12;;;;;;;18.62;77.27;101137.69;5564199;32;33628;-58
2023/10/04 04:18:20;;;;;;;4.85;2.03;;;;;;;18.60;74.68;101143.41;5563504;32;33614;-58
2023/10/04 04:21:25;;;;;;;4.85;1.80;;;;;;;18.60;74.13;101156.19;5564036;32;31707;-58
2023/10/04 04:24:28;;;;;;;5.70;1.87;;;;;;;18.52;75.08;101147.72;5562736;32;34536;-58
2023/10/04 04:27:31;;;;;;;5.82;1.95;;;;;;;18.53;71.55;101145.78;5563097;32;34920;-58
2023/10/04 04:30:35;;;;;;;4.72;1.50;;;;;;;18.53;71.15;101151.22;5560693;32;33770;-58
2023/10/04 04:33:38;;;;;;;5.03;1.80;;;;;;;18.55;70.81;101151.72;5563881;32;32986;-58
2023/10/04 04:36:42;;;;;;;2.78;1.60;;;;;;;18.67;71.12;101153.81;5549290;32;33372;-58
2023/10/04 04:39:45;;;;;;;2.97;1.45;;;;;;;18.56;71.26;101150.59;5543932;32;33721;-58
2023/10/04 04:42:48;;;;;;;6.45;1.87;;;;;;;18.66;72.57;101166.59;5543932;32;33225;-58
2023/10/04 04:45:52;;;;;;;6.35;1.65;;;;;;;18.52;69.19;101161.28;5544355;32;34652;-58
2023/10/04 04:48:55;;;;;;;3.67;1.80;;;;;;;18.47;68.06;101180.44;5544255;32;34311;-58
2023/10/04 04:51:59;;;;;;;3.72;1.62;;;;;;;18.51;67.52;101181.41;5544363;32;33121;-58
2023/10/04 04:55:04;;;;;;;4.15;1.60;;;;;;;18.43;68.71;101193.03;5544325;32;33635;-58
2023/10/04 04:58:06;;;;;;;3.90;1.70;;;;;;;18.38;67.93;101181.53;5543327;32;34310;-58
2023/10/04 05:01:11;;;;;;;4.57;1.80;;;;;;;18.40;66.19;101192.84;5543590;32;33761;-58
2023/10/04 05:04:13;;;;;;;3.83;1.50;;;;;;;18.42;69.01;101187.94;5543927;32;34576;-58
2023/10/04 05:07:16;;;;;;;2.92;1.58;;;;;;;18.42;66.23;101196.06;5544042;32;34406;-57
2023/10/04 05:10:18;;;;;;;5.07;1.70;;;;;;;18.42;64.37;101201.50;5534015;32;33281;-57
2023/10/04 05:13:21;;;;;;;3.17;1.83;;;;;;;18.42;67.64;101193.34;5530644;32;32201;-58
2023/10/04 05:16:25;;;;;;;6.93;1.73;;;;;;;18.43;65.18;101203.09;5528957;32;34415;-57
2023/10/04 05:19:29;;;;;;;2.95;1.52;;;;;;;18.45;64.12;101209.03;5530809;32;33571;-57
2023/10/04 05:22:31;;;;;;;6.25;1.62;;;;;;;18.41;63.68;101227.03;5530825;32;33793;-58
2023/10/04 05:25:34;;;;;;;10.32;2.10;;;;;;;18.44;68.34;101240.81;5530960;32;33678;-57
2023/10/04 05:28:36;;;;;;;4.10;1.80;;;;;;;18.43;64.12;101230.25;5530820;32;34213;-58
2023/10/04 05:31:40;;;;;;;5.55;1.62;;;;;;;18.43;64.65;101235.66;5526360;32;33733;-57
2023/10/04 05:34:42;;;;;;;4.50;1.73;;;;;;;18.46;65.35;101243.19;5529409;32;33425;-57
2023/10/04 05:37:45;;;;;;;5.95;1.92;;;;;;;18.43;63.78;101241.91;5530692;32;34290;-57
2023/10/04 05:40:47;;;;;;;7.97;2.03;;;;;;;18.46;66.07;101254.84;5530179;32;33843;-58
2023/10/04 05:43:49;;;;;;;4.43;2.10;;;;;;;18.52;68.07;101256.31;5530180;32;33652;-57
2023/10/04 05:46:52;;;;;;;5.45;1.83;;;;;;;18.61;67.02;101266.41;5530174;32;33563;-58
2023/10/04 05:49:55;;;;;;;5.72;2.17;;;;;;;18.58;64.26;101264.34;5530425;32;34081;-57
2023/10/04 05:53:01;;;;;;;7.32;2.12;;;;;;;18.70;66.07;101278.13;5529676;32;33601;-57
2023/10/04 05:56:03;;;;;;;4.00;1.80;;;;;;;18.54;63.19;101299.44;5529064;32;33640;-58
2023/10/04 05:59:10;;;;;;;4.15;2.08;;;;;;;18.46;65.22;101306.44;5529312;32;33637;-58
2023/10/04 06:02:13;;;;;;;6.10;1.80;;;;;;;18.52;63.69;101301.69;5530222;32;33280;-59
2023/10/04 06:05:16;;;;;;;4.60;2.00;;;;;;;18.50;63.13;101304.69;5530747;32;34308;-57
2023/10/04 06:08:21;;;;;;;6.12;1.80;;;;;;;18.33;63.08;101314.66;5530548;32;34093;-57
2023/10/04 06:11:26;;;;;;;8.65;1.73;;;;;;;18.27;63.16;101325.63;5529277;32;34468;-57
2023/10/04 06:14:28;;;;;;;4.93;1.70;;;;;;;18.34;63.42;101332.53;5530352;32;34272;-58
2023/10/04 06:17:33;;;;;;;5.28;1.80;;;;;;;18.30;61.37;101344.00;5530253;32;33653;-58
2023/10/04 06:20:36;;;;;;;3.95;1.50;;;;;;;18.20;60.73;101352.41;5529446;32;33821;-57
2023/10/04 06:23:39;;;;;;;5.03;1.65;;;;;;;18.05;58.89;101348.16;5530225;32;33585;-57
2023/10/04 06:26:41;;;;;;;3.12;1.62;;;;;;;18.02;58.58;101353.38;5529939;32;33612;-58
2023/10/04 06:29:44;;;;;;;4.28;1.60;;;;;;;17.94;58.83;101345.97;5529672;32;33353;-57
2023/10/04 06:32:51;;;;;;;3.80;1.30;;;;;;;17.92;59.86;101334.63;5530398;32;33623;-57
2023/10/04 06:35:54;;;;;;;3.65;1.50;;;;;;;17.86;58.37;101339.38;5530194;32;33694;-57
2023/10/04 06:38:57;;;;;;;7.78;1.83;;;;;;;17.91;57.95;101341.16;5527812;32;33693;-57
2023/10/04 06:42:00;;;;;;;7.30;1.87;;;;;;;17.97;57.44;101345.34;5529752;32;33586;-57
2023/10/04 06:45:06;;;;;;;4.45;1.60;;;;;;;17.91;57.77;101335.72;5528793;32;33998;-58
2023/10/04 06:48:09;;;;;;;6.53;1.80;;;;;;;17.98;57.30;101353.19;5529151;32;34317;-57
2023/10/04 06:51:12;;;;;;;8.02;1.67;;;;;;;18.11;61.91;101373.22;5528337;32;33631;-57
2023/10/04 06:54:14;;;;;;;5.00;1.50;;;;;;;18.21;56.23;101373.03;5527292;32;34553;-58
2023/10/04 06:57:18;;;;;;;2.78;1.45;;;;;;;18.15;56.50;101385.09;5524673;32;33629;-57
2023/10/04 07:00:22;;;;;;;7.43;1.65;;;;;;;18.06;56.79;101376.06;5529078;32;33612;-58
2023/10/04 07:03:27;;;;;;;3.30;1.50;;;;;;;17.93;58.05;101364.16;5526762;32;33977;-58
2023/10/04 07:06:32;;;;;;;6.20;1.60;;;;;;;17.98;58.09;101369.47;5528663;32;33626;-58
2023/10/04 07:09:34;;;;;;;4.43;1.70;;;;;;;17.96;56.24;101373.59;5528708;32;33745;-58
2023/10/04 07:12:38;;;;;;;5.05;1.50;;;;;;;17.94;57.66;101373.09;5528249;32;33498;-57
2023/10/04 07:15:41;;;;;;;4.97;1.50;;;;;;;17.90;57.29;101377.53;5529049;32;31829;-57
2023/10/04 07:18:46;;;;;;;11.23;2.03;;;;;;;17.89;60.13;101373.22;5527911;32;33679;-58
2023/10/04 07:21:50;;;;;;;2.60;1.45;;;;;;;17.99;57.79;101384.62;5527314;32;34392;-58
2023/10/04 07:24:53;;;;;;;5.22;1.50;;;;;;;17.73;58.07;101376.22;5526602;32;33566;-58
2023/10/04 07:28:02;;;;;;;3.30;1.62;;;;;;;17.64;58.27;101385.38;5529513;32;33573;-57
2023/10/04 07:31:05;;;;;;;2.35;1.12;;;;;;;17.52;59.16;101372.34;5529161;32;34283;-55
2023/10/04 07:34:07;;;;;;;6.15;1.70;;;;;;;17.61;59.38;101376.75;5525402;32;33837;-56
2023/10/04 07:37:10;;;;;;;6.62;1.80;;;;;;;17.68;65.31;101383.66;5527002;32;34246;-55
2023/10/04 07:40:14;;;;;;;7.15;1.60;;;;;;;17.65;62.05;101390.50;5523315;32;33738;-55
2023/10/04 07:43:17;;;;;;;5.07;1.50;;;;;;;17.71;60.67;101391.19;5524934;32;33575;-55
2023/10/04 07:46:19;;;;;;;4.28;1.40;;;;;;;17.66;60.79;101397.53;5528746;32;33929;-55
2023/10/04 07:49:21;;;;;;;10.02;1.80;;;;;;;17.71;61.11;101400.13;5529326;32;33675;-56
2023/10/04 07:52:24;;;;;;;5.87;1.50;;;;;;;17.78;61.91;101389.72;5529349;32;34234;-56
2023/10/04 07:55:27;;;;;;;2.70;1.35;;;;;;;17.96;61.45;101393.37;5529257;32;33565;-55
2023/10/04 07:58:30;;;;;;;3.67;1.40;;;;;;;17.94;59.33;101397.50;5524194;32;34378;-55
2023/10/04 08:01:33;;;;;;;3.90;1.40;;;;;;;18.05;64.03;101402.41;5527784;32;33711;-55
2023/10/04 08:04:36;;;;;;;3.45;1.52;;;;;;;18.15;62.29;101398.66;5529205;32;34299;-55
2023/10/04 08:07:38;;;;;;;3.03;1.52;;;;;;;18.13;60.41;101403.59;5528390;32;33655;-55
2023/10/04 08:10:41;;;;;;;3.60;1.40;;;;;;;18.12;59.18;101399.28;5529080;32;34231;-54
2023/10/04 08:13:46;;;;;;;5.57;1.80;;;;;;;18.17;60.29;101399.16;5511061;32;34315;-55
2023/10/04 08:16:50;;;;;;;4.43;1.43;;;;;;;18.30;64.01;101402.94;5524538;32;33607;-55
2023/10/04 08:19:52;;;;;;;3.58;1.75;;;;;;;18.34;58.72;101413.97;5527605;32;34340;-55
2023/10/04 08:22:57;;;;;;;5.22;1.42;;;;;;;18.37;60.92;101430.44;5509887;32;33699;-55
2023/10/04 08:26:01;;;;;;;2.75;1.52;;;;;;;18.41;59.48;101427.91;5519750;32;34325;-55
2023/10/04 08:29:05;;;;;;;5.07;1.50;;;;;;;18.47;58.49;101429.41;5526722;32;34386;-55
2023/10/04 08:32:07;;;;;;;3.78;1.62;;;;;;;18.54;61.06;101429.78;5527058;32;33702;-55
2023/10/04 08:35:33;;;;;;;4.28;1.80;;;;;;;18.36;59.54;101428.06;5527296;32;33889;-55
2023/10/04 08:38:37;;;;;;;6.60;1.75;;;;;;;18.45;59.92;101445.22;5516719;32;33543;-56
2023/10/04 08:41:40;;;;;;;3.67;1.50;;;;;;;18.27;59.47;101442.34;5522662;32;34375;-57
2023/10/04 08:44:43;;;;;;;3.00;1.62;;;;;;;18.31;59.85;101467.78;5523286;32;33767;-58
2023/10/04 08:47:50;;;;;;;6.12;1.60;;;;;;;18.36;63.46;101468.78;5530114;32;34260;-57
2023/10/04 08:50:57;;;;;;;2.80;1.50;;;;;;;18.31;60.51;101470.50;5527777;32;33578;-57
2023/10/04 08:54:21;;;;;;;6.70;1.58;;;;;;;18.41;60.40;101468.63;5530930;32;34346;-57
2023/10/04 08:57:26;;;;;;;6.57;1.65;;;;;;;18.41;58.40;101476.78;5530995;32;34361;-57
2023/10/04 09:00:30;;;;;;;3.67;1.42;;;;;;;18.52;61.73;101475.47;5530463;32;34320;-56
2023/10/04 09:03:35;;;;;;;4.57;1.67;;;;;;;18.53;62.98;101474.34;5526952;32;34280;-56
2023/10/04 09:06:38;;;;;;;9.97;2.50;;;;;;;18.62;58.74;101471.72;5529960;32;33726;-59
2023/10/04 09:09:41;;;;;;;5.12;1.87;;;;;;;18.61;59.85;101470.91;5530603;32;33836;-56
2023/10/04 09:12:47;;;;;;;4.68;1.92;;;;;;;18.58;60.57;101468.00;5526034;32;33722;-57
2023/10/04 09:16:20;;;;;;;3.05;1.75;;;;;;;18.65;58.57;101481.97;5525888;32;34270;-56
2023/10/04 09:19:23;;;;;;;8.02;1.75;;;;;;;18.72;60.66;101477.72;5528346;32;34441;-57
2023/10/04 09:22:32;;;;;;;12.02;2.05;;;;;;;18.82;58.30;101467.72;5525777;32;33643;-57
2023/10/04 09:25:39;;;;;;;5.28;1.75;;;;;;;18.90;59.72;101467.78;5528039;32;33603;-57
2023/10/04 09:28:50;;;;;;;5.95;1.70;;;;;;;18.98;63.55;101472.47;5529356;32;34374;-56
2023/10/04 09:31:55;;;;;;;4.12;1.60;;;;;;;19.19;60.36;101472.75;5530364;32;34371;-56
2023/10/04 09:35:00;;;;;;;10.98;2.25;;;;;;;19.29;57.60;101484.47;5529046;32;33863;-57
2023/10/04 09:38:16;;;;;;;3.80;1.50;;;;;;;19.40;55.96;101483.06;5529060;32;33590;-57
2023/10/04 09:41:19;;;;;;;2.83;1.80;;;;;;;19.54;58.27;101478.38;5527540;32;33363;-57
2023/10/04 09:44:25;;;;;;;5.32;1.80;;;;;;;19.70;53.91;101474.13;5523371;32;33620;-57
2023/10/04 09:47:37;;;;;;;4.93;1.80;;;;;;;19.62;50.49;101471.34;5517971;32;33614;-57
2023/10/04 09:50:40;;;;;;;4.05;1.70;;;;;;;19.57;50.02;101482.34;5517930;32;34529;-57
2023/10/04 09:53:42;;;;;;;4.03;1.60;;;;;;;19.59;49.96;101480.13;5517736;32;33683;-58
2023/10/04 09:56:52;;;;;;;3.35;1.50;;;;;;;19.64;50.15;101474.59;5519908;32;33692;-58
2023/10/04 09:59:57;;;;;;;6.00;1.80;;;;;;;19.88;49.56;101474.19;5518093;32;33274;-58
2023/10/04 10:03:08;;;;;;;3.75;1.75;;;;;;;19.96;50.70;101476.09;5522041;32;33587;-58
2023/10/04 10:06:14;;;;;;;4.07;1.83;;;;;;;20.00;50.32;101471.66;5520981;32;34220;-58
2023/10/04 10:09:19;;;;;;;2.70;1.73;;;;;;;20.13;47.63;101476.16;5496935;32;33663;-58
2023/10/04 10:12:22;;;;;;;;;;;;;;;20.17;51.46;101492.66;5511185;32;33906;-58
2023/10/04 10:15:24;;;;;;;6.82;1.60;;;;;;;20.15;50.13;101497.59;5515192;32;34740;-58
2023/10/04 10:18:27;;;;;;;3.53;1.52;;;;;;;20.11;50.21;101488.47;5510423;32;33593;-59
2023/10/04 10:22:05;;;;;;;3.90;1.50;;;;;;;20.12;51.35;101481.91;5516978;32;33690;-58
2023/10/04 10:25:13;;;;;;;5.55;1.67;;;;;;;20.11;52.25;101477.59;5527612;32;34320;-57
2023/10/04 10:28:23;;;;;;;3.40;1.70;;;;;;;20.09;53.42;101483.34;5525749;32;34339;-58
2023/10/04 10:31:26;;;;;;;8.25;1.92;;;;;;;20.19;53.33;101482.22;5518164;32;33716;-58
2023/10/04 10:34:29;;;;;;;6.15;1.90;;;;;;;20.33;59.46;101491.09;5526316;32;34497;-58
2023/10/04 10:37:41;;;;;;;3.67;1.42;;;;;;;20.29;49.66;101486.56;5523954;32;31894;-58
2023/10/04 10:40:43;;;;;;;4.15;1.80;;;;;;;20.23;47.03;101482.41;5515490;32;33885;-58
2023/10/04 10:44:13;;;;;;;4.90;1.80;;;;;;;20.23;47.67;101491.41;5517199;32;33645;-58
2023/10/04 10:47:21;;;;;;;3.53;1.58;;;;;;;20.27;47.45;101492.34;5525559;32;33682;-58
2023/10/04 10:50:34;;;;;;;4.12;1.73;;;;;;;20.16;47.05;101489.12;5522540;32;33760;-57
2023/10/04 10:53:36;;;;;;;7.07;1.80;;;;;;;20.07;49.45;101488.31;5516317;32;34376;-58
2023/10/04 10:56:39;;;;;;;7.28;2.30;;;;;;;20.13;50.48;101487.06;5526647;32;33665;-58
2023/10/04 10:59:42;;;;;;;4.62;1.80;;;;;;;20.15;49.64;101484.78;5523857;32;34289;-58
2023/10/04 11:02:48;;;;;;;2.65;1.70;;;;;;;20.22;48.92;101481.59;5522484;32;32959;-58
2023/10/04 11:05:51;;;;;;;3.85;1.85;;;;;;;20.19;50.41;101487.69;5523579;32;33657;-58
2023/10/04 11:08:55;;;;;;;6.03;1.50;;;;;;;20.10;50.01;101484.16;5516386;32;33705;-58
2023/10/04 11:11:57;;;;;;;3.67;1.87;;;;;;;20.02;51.25;101482.22;5520516;32;34428;-58
2023/10/04 11:15:00;;;;;;;3.10;1.52;;;;;;;19.91;49.32;101498.03;5522187;32;32290;-57
2023/10/04 11:18:06;;;;;;;4.95;1.90;;;;;;;19.77;52.64;101476.41;5526214;32;33494;-58
2023/10/04 11:21:09;;;;;;;4.95;2.00;;;;;;;19.81;52.62;101482.00;5514543;32;33607;-58
2023/10/04 11:24:14;;;;;;;6.80;1.90;;;;;;;19.98;49.85;101476.59;5518428;32;34364;-58
2023/10/04 11:27:21;;;;;;;4.72;1.92;;;;;;;20.02;48.76;101476.78;5522842;32;34336;-58
2023/10/04 11:30:26;;;;;;;3.42;1.55;;;;;;;19.96;50.12;101484.28;5524279;32;33625;-58
2023/10/04 11:33:29;;;;;;;3.95;1.65;;;;;;;19.92;48.85;101473.22;5523516;32;32934;-58
2023/10/04 11:36:35;;;;;;;4.53;1.77;;;;;;;20.03;50.14;101473.72;5523879;32;33670;-58
2023/10/04 11:39:39;;;;;;;5.47;1.60;;;;;;;20.10;49.41;101479.53;5526782;32;34352;-58
2023/10/04 11:42:43;;;;;;;4.75;1.73;;;;;;;20.10;49.05;101474.06;5526249;32;34306;-57
2023/10/04 11:45:58;;;;;;;2.80;1.65;;;;;;;20.16;46.49;101472.81;5519612;32;34384;-58
2023/10/04 11:49:14;;;;;;;8.30;1.90;;;;;;;20.06;44.81;101483.19;5522138;32;33792;-57
2023/10/04 11:52:17;;;;;;;8.25;1.80;;;;;;;19.91;45.38;101471.63;5520532;32;34475;-58
2023/10/04 11:55:26;;;;;;;5.90;1.95;;;;;;;19.97;45.73;101466.00;5516047;32;33637;-58
2023/10/04 11:58:30;;;;;;;5.82;1.80;;;;;;;20.02;46.97;101471.31;5518563;32;34339;-57
2023/10/04 12:01:45;;;;;;;4.30;1.50;;;;;;;20.05;47.56;101466.03;5525086;32;34337;-58
2023/10/04 12:04:47;;;;;;;4.60;1.83;;;;;;;20.08;46.65;101470.06;5522217;32;34352;-58
2023/10/04 12:07:50;;;;;;;2.78;1.60;;;;;;;20.06;45.88;101467.63;5528859;32;33631;-57
2023/10/04 12:10:52;;;;;;;6.70;1.87;;;;;;;20.05;48.24;101471.50;5523912;32;33668;-58
2023/10/04 12:13:55;;;;;;;5.45;1.80;;;;;;;20.00;45.59;101477.09;5522921;32;33879;-58
2023/10/04 12:17:03;;;;;;;3.25;1.50;;;;;;;19.99;47.14;101466.50;5514847;32;33607;-58
2023/10/04 12:20:11;;;;;;;4.40;1.62;;;;;;;20.10;47.00;101460.47;5522369;32;34394;-58
2023/10/04 12:23:15;;;;;;;3.97;1.60;;;;;;;20.13;46.18;101470.72;5524455;32;33372;-58
2023/10/04 12:26:20;;;;;;;3.30;1.40;;;;;;;20.22;46.52;101467.19;5520682;32;33702;-58
2023/10/04 12:29:23;;;;;;;;;;;;;;;20.35;46.71;101463.50;5523876;32;34050;-58
2023/10/04 12:32:25;;;;;;;2.78;1.58;;;;;;;20.40;45.78;101461.44;5522592;32;34004;-58
2023/10/04 12:35:28;;;;;;;4.93;1.58;;;;;;;20.44;45.28;101458.88;5521901;32;33817;-58
2023/10/04 12:38:31;;;;;;;4.80;1.50;;;;;;;20.40;45.22;101461.44;5524780;32;33516;-58
2023/10/04 12:41:33;;;;;;;4.85;1.75;;;;;;;20.38;46.98;101457.44;5526939;32;33715;-58
2023/10/04 12:44:37;;;;;;;3.70;1.58;;;;;;;20.30;47.54;101469.94;5529061;32;33838;-58
2023/10/04 12:47:41;;;;;;;5.70;1.80;;;;;;;20.32;46.15;101461.44;5524385;32;33223;-57
2023/10/04 12:50:45;;;;;;;9.43;1.85;;;;;;;20.31;46.76;101463.34;5523943;32;33727;-58
2023/10/04 12:53:48;;;;;;;3.62;1.50;;;;;;;20.27;46.65;101462.41;5521879;32;33631;-58
2023/10/04 12:56:52;;;;;;;4.10;1.58;;;;;;;20.18;45.91;101458.84;5523071;32;34228;-58
2023/10/04 12:59:58;;;;;;;3.37;1.98;;;;;;;20.21;46.88;101460.16;5525606;32;33580;-58
2023/10/04 13:03:00;;;;;;;5.15;2.05;;;;;;;20.17;45.78;101462.72;5523690;32;33709;-58
2023/10/04 13:06:03;;;;;;;3.10;1.87;;;;;;;20.17;46.62;101470.87;5527280;32;34366;-60
2023/10/04 13:09:14;;;;;;;6.00;1.60;;;;;;;20.16;47.24;101459.19;5522973;32;33426;-58
2023/10/04 13:12:17;;;;;;;4.70;1.58;;;;;;;20.05;46.58;101452.44;5524823;32;34312;-57
2023/10/04 13:15:19;;;;;;;7.47;1.90;;;;;;;20.04;46.43;101459.00;5518401;32;34461;-58
2023/10/04 13:18:24;;;;;;;7.80;1.90;;;;;;;19.98;50.13;101476.59;5521910;32;33230;-58
2023/10/04 13:21:28;;;;;;;4.22;1.58;;;;;;;19.95;49.87;101477.22;5518833;32;33958;-57
2023/10/04 13:24:31;;;;;;;3.30;1.50;;;;;;;19.83;48.13;101477.03;5514202;32;34322;-57
2023/10/04 13:27:34;;;;;;;4.00;1.83;;;;;;;19.85;57.10;101466.66;5519316;32;33803;-58
2023/10/04 13:30:37;;;;;;;4.35;1.50;;;;;;;19.90;47.83;101469.22;5511287;32;33741;-57
2023/10/04 13:33:40;;;;;;;2.40;1.40;;;;;;;19.69;45.81;101471.72;5525743;32;33670;-57
2023/10/04 13:36:42;;;;;;;9.40;1.65;;;;;;;19.66;46.37;101491.37;5523130;32;34354;-56
2023/10/04 13:39:45;;;;;;;4.65;1.60;;;;;;;19.48;46.77;101485.06;5529353;32;33752;-56
2023/10/04 13:42:51;;;;;;;4.75;1.80;;;;;;;19.44;46.01;101478.66;5527692;32;33734;-58
2023/10/04 13:46:03;;;;;;;4.05;1.70;;;;;;;19.46;47.12;101492.72;5528623;32;33688;-58
2023/10/04 13:49:07;;;;;;;4.30;1.73;;;;;;;19.53;51.40;101489.53;5522262;32;33701;-58
2023/10/04 13:52:11;;;;;;;5.03;1.62;;;;;;;19.61;47.21;101481.44;5526977;32;34376;-58
2023/10/04 13:55:14;;;;;;;3.47;1.50;;;;;;;19.58;48.92;101492.94;5528685;32;33947;-56
2023/10/04 13:58:21;;;;;;;4.72;1.80;;;;;;;19.65;45.68;101500.66;5529171;32;34469;-56
2023/10/04 14:01:24;;;;;;;10.38;1.98;;;;;;;19.61;48.37;101505.09;5522070;32;35023;-57
2023/10/04 14:04:27;;;;;;;4.28;1.67;;;;;;;19.57;46.69;101512.28;5526322;32;33620;-57
2023/10/04 14:07:29;;;;;;;4.30;1.80;;;;;;;19.57;46.13;101523.97;5525577;32;33673;-56
2023/10/04 14:10:32;;;;;;;6.05;1.60;;;;;;;19.43;48.24;101523.25;5526577;32;34358;-57
2023/10/04 14:13:34;;;;;;;4.00;1.60;;;;;;;19.27;46.78;101528.31;5522843;32;33737;-56
2023/10/04 14:16:41;;;;;;;5.68;1.23;;;;;;;19.18;46.73;101530.16;5521292;32;33694;-56
2023/10/04 14:19:44;;;;;;;6.37;2.20;;;;;;;19.19;47.42;101527.09;5522827;32;33627;-57
2023/10/04 14:22:48;;;;;;;6.15;1.45;;;;;;;19.06;47.21;101522.53;5521933;32;34854;-57
2023/10/04 14:25:54;;;;;;;7.75;2.17;;;;;;;18.96;47.33;101512.72;5520382;32;34442;-57
2023/10/04 14:28:59;;;;;;;4.47;1.70;;;;;;;18.97;49.83;101506.19;5527473;32;33686;-57
2023/10/04 14:32:01;;;;;;;3.95;1.50;;;;;;;19.07;48.97;101483.38;5517092;32;34126;-57
2023/10/04 14:35:09;;;;;;;4.87;1.67;;;;;;;19.10;45.52;101473.81;5521948;32;33641;-58
2023/10/04 14:38:15;;;;;;;12.77;1.67;;;;;;;19.11;48.10;101470.78;5529107;32;33664;-58
2023/10/04 14:41:18;;;;;;;;;;;;;;;19.10;48.00;101488.19;5522604;32;33847;-57
2023/10/04 14:44:20;;;;;;;4.70;1.83;;;;;;;19.09;48.51;101491.25;5517063;32;33739;-58
2023/10/04 14:47:22;;;;;;;3.62;1.58;;;;;;;19.02;45.76;101487.03;5523304;32;33738;-58
2023/10/04 14:50:24;;;;;;;4.87;1.83;;;;;;;18.94;46.85;101484.25;5522399;32;33760;-58
2023/10/04 14:53:27;;;;;;;5.85;1.87;;;;;;;18.99;57.54;101490.38;5522897;32;33648;-58
2023/10/04 14:56:29;;;;;;;3.50;1.60;;;;;;;19.06;49.26;101498.09;5523239;32;33770;-58
2023/10/04 14:59:32;;;;;;;5.00;1.60;;;;;;;18.89;46.52;101487.13;5527883;32;33666;-58
2023/10/04 15:02:35;;;;;;;6.78;1.95;;;;;;;18.90;50.68;101470.50;5523175;32;33648;-58
2023/10/04 15:05:37;;;;;;;3.20;1.60;;;;;;;18.94;46.89;101457.09;5526839;32;33690;-58
2023/10/04 15:08:42;;;;;;;2.90;1.33;;;;;;;18.77;46.08;101441.47;5526014;32;34271;-58
2023/10/04 15:11:45;;;;;;;3.37;1.35;;;;;;;18.68;44.60;101454.97;5520085;32;33703;-58
2023/10/04 15:14:47;;;;;;;3.00;1.20;;;;;;;18.73;48.05;101438.56;5526681;32;33614;-58
2023/10/04 15:17:49;;;;;;;8.05;1.70;;;;;;;18.70;47.80;101470.97;5522892;32;34444;-58
2023/10/04 15:20:53;;;;;;;4.70;1.75;;;;;;;18.69;52.01;101462.00;5527941;32;33664;-58
2023/10/04 15:23:56;;;;;;;5.20;1.48;;;;;;;18.58;48.91;101476.16;5521163;32;33665;-58
2023/10/04 15:26:58;;;;;;;2.17;1.40;;;;;;;18.42;47.35;101492.78;5524018;32;33593;-58
2023/10/04 15:30:00;;;;;;;8.35;1.70;;;;;;;18.43;47.20;101499.81;5528593;32;33685;-58
